Time;durP1;ratioP1;P1;durP2;ratioP2;P2;SDS_P1;SDS_P2;PMS_P1;PMS_P2;Temp;Humidity;BMP_temperature;BMP_pressure;BME280_temperature;BME280_humidity;BME280_pressure;Samples;Min_cycle;Max_cycle;Signal;HPM_P1;HPM_P2
2022/04/12 00:00:39;;;;;;;17.00;11.88;;;;;;;;;;5063169;28;20491;-65
2022/04/12 00:03:06;;;;;;;15.80;11.77;;;;;;;;;;5061876;28;20044;-65
2022/04/12 00:05:36;;;;;;;16.48;11.00;;;;;;;;;;5063666;28;20062;-65
2022/04/12 00:08:02;;;;;;;15.82;11.43;;;;;;;;;;5063081;28;20049;-65
2022/04/12 00:10:29;;;;;;;15.95;11.20;;;;;;;;;;5064382;28;20032;-65
2022/04/12 00:12:56;;;;;;;15.80;11.68;;;;;;;;;;5062843;28;20036;-65
2022/04/12 00:15:22;;;;;;;15.23;10.77;;;;;;;;;;5064586;28;20075;-65
2022/04/12 00:20:32;;;;;;;16.15;11.18;;;;;;;;;;5062658;28;20400;-65
2022/04/12 00:22:59;;;;;;;17.85;11.88;;;;;;;;;;5062239;28;20044;-65
2022/04/12 00:25:25;;;;;;;16.73;12.07;;;;;;;;;;5060774;28;20055;-65
2022/04/12 00:27:52;;;;;;;15.50;11.93;;;;;;;;;;5063858;28;20055;-65
2022/04/12 00:30:19;;;;;;;15.30;10.85;;;;;;;;;;5064132;28;20036;-65
2022/04/12 00:32:45;;;;;;;15.25;10.70;;;;;;;;;;5063040;28;20090;-65
2022/04/12 00:35:11;;;;;;;14.63;11.18;;;;;;;;;;5059414;28;20060;-65
2022/04/12 00:37:37;;;;;;;17.58;11.90;;;;;;;;;;5059182;28;20476;-65
2022/04/12 00:40:04;;;;;;;17.17;11.38;;;;;;;;;;5063116;28;20032;-65
2022/04/12 00:42:31;;;;;;;16.20;11.52;;;;;;;;;;5064433;28;20170;-65
2022/04/12 00:44:57;;;;;;;17.38;11.50;;;;;;;;;;5065760;28;20080;-65
2022/04/12 00:47:23;;;;;;;15.50;11.05;;;;;;;;;;5065750;28;20401;-65
2022/04/12 00:49:49;;;;;;;14.85;10.68;;;;;;;;;;5064542;28;20044;-65
2022/04/12 00:52:16;;;;;;;17.55;11.95;;;;;;;;;;5064395;28;20032;-65
2022/04/12 00:54:43;;;;;;;14.38;11.45;;;;;;;;;;5064152;28;20044;-65
2022/04/12 00:57:09;;;;;;;15.25;11.73;;;;;;;;;;5063932;28;20496;-65
2022/04/12 00:59:35;;;;;;;17.08;11.48;;;;;;;;;;5082160;28;20127;-65
2022/04/12 01:02:05;;;;;;;15.13;11.13;;;;;;;;;;5065035;28;20036;-65
2022/04/12 01:04:31;;;;;;;15.75;11.10;;;;;;;;;;5062220;28;20138;-65
2022/04/12 01:06:57;;;;;;;16.27;10.90;;;;;;;;;;5061597;28;20040;-65
2022/04/12 01:09:27;;;;;;;14.27;11.27;;;;;;;;;;5059687;28;20526;-65
2022/04/12 01:11:54;;;;;;;14.38;10.77;;;;;;;;;;5060980;28;20044;-65
2022/04/12 01:14:21;;;;;;;16.48;11.57;;;;;;;;;;5062367;28;20494;-65
2022/04/12 01:16:47;;;;;;;17.30;10.57;;;;;;;;;;5063994;28;20040;-65
2022/04/12 01:19:13;;;;;;;15.52;11.50;;;;;;;;;;5066314;28;20036;-65
2022/04/12 01:22:00;;;;;;;16.50;11.80;;;;;;;;;;5060173;28;20486;-65
2022/04/12 01:24:27;;;;;;;14.05;11.02;;;;;;;;;;5065622;28;20044;-65
2022/04/12 01:26:53;;;;;;;15.23;11.05;;;;;;;;;;5061298;28;20041;-65
2022/04/12 01:29:19;;;;;;;16.23;11.60;;;;;;;;;;5063569;28;20527;-65
2022/04/12 01:31:45;;;;;;;18.60;12.05;;;;;;;;;;5061219;28;20041;-65
2022/04/12 01:34:12;;;;;;;14.52;11.38;;;;;;;;;;5060861;28;20037;-65
2022/04/12 01:36:38;;;;;;;16.15;11.10;;;;;;;;;;5062424;28;20037;-65
2022/04/12 01:39:04;;;;;;;16.15;11.27;;;;;;;;;;5059793;28;20500;-65
2022/04/12 01:41:30;;;;;;;14.05;10.88;;;;;;;;;;5065653;28;20069;-65
2022/04/12 01:43:56;;;;;;;14.15;10.70;;;;;;;;;;5063741;28;20049;-64
2022/04/12 01:46:23;;;;;;;19.17;11.27;;;;;;;;;;5064609;28;20157;-65
2022/04/12 01:48:49;;;;;;;15.07;10.65;;;;;;;;;;5065356;28;20131;-65
2022/04/12 01:51:15;;;;;;;15.25;11.80;;;;;;;;;;5065170;28;20076;-65
2022/04/12 01:53:42;;;;;;;16.65;11.65;;;;;;;;;;5063712;28;20106;-65
2022/04/12 01:56:08;;;;;;;14.60;10.88;;;;;;;;;;5067039;28;20037;-65
2022/04/12 01:58:36;;;;;;;16.73;11.05;;;;;;;;;;5063333;28;20072;-65
2022/04/12 02:01:02;;;;;;;15.50;11.10;;;;;;;;;;5063877;28;20512;-65
2022/04/12 02:03:28;;;;;;;12.30;9.93;;;;;;;;;;5063712;28;20457;-65
2022/04/12 02:05:57;;;;;;;12.93;10.75;;;;;;;;;;5062933;28;20036;-65
2022/04/12 02:08:23;;;;;;;16.10;10.25;;;;;;;;;;5062187;28;20036;-65
2022/04/12 02:10:49;;;;;;;16.08;10.82;;;;;;;;;;5062933;28;20040;-64
2022/04/12 02:13:18;;;;;;;14.60;11.38;;;;;;;;;;5062725;28;20097;-65
2022/04/12 02:15:44;;;;;;;15.98;11.20;;;;;;;;;;5063640;28;20067;-65
2022/04/12 02:18:10;;;;;;;16.27;10.57;;;;;;;;;;5079353;28;20037;-65
2022/04/12 02:20:36;;;;;;;15.73;9.60;;;;;;;;;;5059511;28;20039;-64
2022/04/12 02:23:02;;;;;;;17.17;10.43;;;;;;;;;;5064323;28;20076;-65
2022/04/12 02:25:29;;;;;;;14.57;10.40;;;;;;;;;;5060642;28;20041;-65
2022/04/12 02:27:55;;;;;;;12.80;9.90;;;;;;;;;;5064685;28;20452;-64
2022/04/12 02:30:21;;;;;;;15.02;10.27;;;;;;;;;;5062247;28;20036;-65
2022/04/12 02:32:47;;;;;;;14.52;10.45;;;;;;;;;;5059388;28;20160;-65
2022/04/12 02:35:13;;;;;;;15.32;9.88;;;;;;;;;;5059425;28;20156;-65
2022/04/12 02:37:39;;;;;;;15.02;9.98;;;;;;;;;;5062236;28;20135;-64
2022/04/12 02:40:05;;;;;;;14.75;10.25;;;;;;;;;;5062073;28;20044;-64
2022/04/12 02:42:31;;;;;;;13.68;10.18;;;;;;;;;;5062491;28;20080;-65
2022/04/12 02:44:57;;;;;;;14.45;9.85;;;;;;;;;;5063024;28;20063;-65
2022/04/12 02:47:25;;;;;;;16.30;9.77;;;;;;;;;;5059487;28;20045;-64
2022/04/12 02:49:51;;;;;;;13.80;9.40;;;;;;;;;;5063242;28;20033;-65
2022/04/12 02:52:17;;;;;;;14.25;10.10;;;;;;;;;;5059914;28;20033;-65
2022/04/12 02:54:43;;;;;;;13.30;10.10;;;;;;;;;;5060413;28;20038;-65
2022/04/12 02:57:09;;;;;;;14.90;9.50;;;;;;;;;;5062686;28;20047;-65
2022/04/12 02:59:36;;;;;;;12.95;9.27;;;;;;;;;;5064597;28;20102;-65
2022/04/12 03:02:02;;;;;;;13.43;10.18;;;;;;;;;;5059235;28;20059;-65
2022/04/12 03:04:28;;;;;;;13.00;9.50;;;;;;;;;;5061353;28;20397;-64
2022/04/12 03:06:54;;;;;;;13.20;9.55;;;;;;;;;;5063420;28;20062;-65
2022/04/12 03:09:22;;;;;;;13.15;9.55;;;;;;;;;;5062607;28;20415;-65
2022/04/12 03:11:48;;;;;;;16.67;10.48;;;;;;;;;;5061092;28;20063;-65
2022/04/12 03:14:14;;;;;;;12.45;9.50;;;;;;;;;;5063015;28;20044;-65
2022/04/12 03:16:42;;;;;;;14.00;9.98;;;;;;;;;;5062189;28;20052;-65
2022/04/12 03:19:08;;;;;;;12.57;9.68;;;;;;;;;;5061024;28;20457;-65
2022/04/12 03:21:34;;;;;;;12.23;9.70;;;;;;;;;;5059004;28;20052;-64
2022/04/12 03:24:01;;;;;;;13.63;10.52;;;;;;;;;;5062491;28;20062;-65
2022/04/12 03:26:27;;;;;;;13.43;9.18;;;;;;;;;;5061334;28;20041;-64
2022/04/12 03:28:53;;;;;;;14.20;9.43;;;;;;;;;;5063125;28;20051;-65
2022/04/12 03:31:20;;;;;;;13.07;8.80;;;;;;;;;;5063206;28;21275;-65
2022/04/12 03:33:46;;;;;;;15.40;10.10;;;;;;;;;;5065464;28;20048;-65
2022/04/12 03:36:13;;;;;;;13.35;9.35;;;;;;;;;;5065630;28;20044;-65
2022/04/12 03:38:48;;;;;;;12.23;9.13;;;;;;;;;;5062755;28;20049;-65
2022/04/12 03:41:15;;;;;;;13.50;9.45;;;;;;;;;;5064056;28;20059;-65
2022/04/12 03:43:41;;;;;;;14.30;9.93;;;;;;;;;;5061667;28;20053;-64
2022/04/12 03:46:07;;;;;;;13.48;9.40;;;;;;;;;;5062897;28;20061;-64
2022/04/12 03:48:33;;;;;;;12.75;9.77;;;;;;;;;;5064565;28;20041;-65
2022/04/12 03:50:59;;;;;;;12.90;9.73;;;;;;;;;;5066278;28;20109;-65
2022/04/12 03:53:25;;;;;;;14.27;9.07;;;;;;;;;;5063326;28;20480;-64
2022/04/12 03:55:51;;;;;;;15.90;9.57;;;;;;;;;;5066431;28;20123;-64
2022/04/12 03:58:19;;;;;;;12.98;9.75;;;;;;;;;;5064403;28;20036;-65
2022/04/12 04:00:46;;;;;;;11.98;8.93;;;;;;;;;;5065420;28;20613;-65
2022/04/12 04:03:12;;;;;;;16.70;10.18;;;;;;;;;;5064932;28;20045;-65
2022/04/12 04:05:38;;;;;;;15.35;9.25;;;;;;;;;;5064092;28;20029;-65
2022/04/12 04:08:04;;;;;;;13.63;9.68;;;;;;;;;;5062909;28;20086;-65
2022/04/12 04:10:30;;;;;;;12.88;9.55;;;;;;;;;;5063790;28;20120;-65
2022/04/12 04:12:56;;;;;;;13.02;9.27;;;;;;;;;;5063557;28;20037;-64
2022/04/12 04:15:22;;;;;;;13.43;9.18;;;;;;;;;;5065089;28;20048;-65
2022/04/12 04:17:48;;;;;;;15.27;9.70;;;;;;;;;;5063433;28;20089;-65
2022/04/12 04:20:16;;;;;;;11.68;9.30;;;;;;;;;;5067335;28;20439;-64
2022/04/12 04:22:42;;;;;;;12.93;9.55;;;;;;;;;;5065924;28;20166;-65
2022/04/12 04:25:09;;;;;;;13.82;9.43;;;;;;;;;;5070266;28;20047;-65
2022/04/12 04:27:35;;;;;;;13.90;9.63;;;;;;;;;;5067594;28;20168;-64
2022/04/12 04:30:03;;;;;;;13.85;9.30;;;;;;;;;;5068597;28;20393;-65
2022/04/12 04:32:29;;;;;;;13.40;9.85;;;;;;;;;;5068770;28;20392;-65
2022/04/12 04:34:55;;;;;;;13.43;9.63;;;;;;;;;;5069412;28;20040;-65
2022/04/12 04:37:21;;;;;;;13.30;9.50;;;;;;;;;;5064229;28;20481;-65
2022/04/12 04:39:47;;;;;;;11.80;8.77;;;;;;;;;;5067743;28;20484;-64
2022/04/12 04:42:14;;;;;;;12.95;9.23;;;;;;;;;;5063167;28;20113;-64
2022/04/12 04:44:40;;;;;;;15.40;9.15;;;;;;;;;;5064926;28;20048;-65
2022/04/12 04:47:06;;;;;;;12.80;9.05;;;;;;;;;;5063232;28;20150;-65
2022/04/12 04:49:32;;;;;;;14.48;9.55;;;;;;;;;;5066608;28;20558;-65
2022/04/12 04:51:58;;;;;;;14.77;9.15;;;;;;;;;;5065018;28;20040;-65
2022/04/12 04:54:24;;;;;;;14.50;8.85;;;;;;;;;;5066846;28;20045;-64
2022/04/12 04:56:51;;;;;;;11.90;8.93;;;;;;;;;;5066912;28;20041;-64
2022/04/12 04:59:17;;;;;;;16.85;9.93;;;;;;;;;;5067527;28;21361;-65
2022/04/12 05:01:43;;;;;;;11.88;8.82;;;;;;;;;;5062931;28;20048;-65
2022/04/12 05:04:09;;;;;;;12.57;8.93;;;;;;;;;;5063374;28;20037;-65
2022/04/12 05:06:35;;;;;;;12.07;8.90;;;;;;;;;;5063816;28;20045;-65
2022/04/12 05:09:02;;;;;;;12.45;7.93;;;;;;;;;;5065945;28;20037;-65
2022/04/12 05:11:28;;;;;;;15.10;9.15;;;;;;;;;;5062044;28;20051;-65
2022/04/12 05:13:55;;;;;;;11.95;8.75;;;;;;;;;;5067482;28;20076;-64
2022/04/12 05:16:21;;;;;;;14.57;9.52;;;;;;;;;;5068086;28;20044;-65
2022/04/12 05:18:47;;;;;;;13.55;8.70;;;;;;;;;;5065141;28;20105;-65
2022/04/12 05:21:13;;;;;;;12.73;9.18;;;;;;;;;;5063767;28;20048;-65
2022/04/12 05:23:39;;;;;;;13.45;9.00;;;;;;;;;;5063958;28;20483;-64
2022/04/12 05:26:05;;;;;;;15.18;8.95;;;;;;;;;;5083225;28;20049;-65
2022/04/12 05:28:31;;;;;;;13.23;9.10;;;;;;;;;;5065120;28;20033;-65
2022/04/12 05:30:57;;;;;;;12.82;8.95;;;;;;;;;;5066556;28;20102;-64
2022/04/12 05:33:24;;;;;;;15.27;9.10;;;;;;;;;;5066675;28;20564;-65
2022/04/12 05:35:50;;;;;;;15.70;9.20;;;;;;;;;;5066602;28;20998;-65
2022/04/12 05:38:16;;;;;;;14.15;8.68;;;;;;;;;;5067068;28;20079;-64
2022/04/12 05:40:42;;;;;;;12.30;8.95;;;;;;;;;;5064629;28;20049;-65
2022/04/12 05:43:08;;;;;;;12.50;8.93;;;;;;;;;;5064361;28;20132;-65
2022/04/12 05:45:34;;;;;;;12.55;8.85;;;;;;;;;;5065701;28;20040;-65
2022/04/12 05:48:00;;;;;;;14.52;8.68;;;;;;;;;;5064981;28;20037;-65
2022/04/12 05:50:27;;;;;;;13.38;9.20;;;;;;;;;;5065702;28;20097;-65
2022/04/12 05:52:53;;;;;;;12.48;8.85;;;;;;;;;;5064668;28;20086;-65
2022/04/12 05:55:21;;;;;;;16.33;8.32;;;;;;;;;;5063352;28;20040;-65
2022/04/12 05:57:52;;;;;;;12.68;9.10;;;;;;;;;;5065593;28;20044;-65
2022/04/12 06:00:18;;;;;;;13.45;8.43;;;;;;;;;;5065110;28;20048;-65
2022/04/12 06:02:45;;;;;;;11.57;9.02;;;;;;;;;;5065910;28;20037;-65
2022/04/12 06:05:13;;;;;;;13.25;8.07;;;;;;;;;;5066665;28;20033;-65
2022/04/12 06:07:39;;;;;;;14.88;8.90;;;;;;;;;;5067760;28;20048;-65
2022/04/12 06:10:06;;;;;;;13.30;8.40;;;;;;;;;;5066505;28;20121;-65
2022/04/12 06:12:32;;;;;;;13.05;8.48;;;;;;;;;;5065904;28;20554;-65
2022/04/12 06:14:58;;;;;;;10.60;7.72;;;;;;;;;;5066243;28;20074;-68
2022/04/12 06:17:34;;;;;;;13.38;8.60;;;;;;;;;;5061161;28;20043;-68
2022/04/12 06:20:01;;;;;;;12.48;9.02;;;;;;;;;;5061967;28;20051;-68
2022/04/12 06:22:27;;;;;;;13.43;8.75;;;;;;;;;;5065875;28;20040;-67
2022/04/12 06:24:53;;;;;;;11.02;7.53;;;;;;;;;;5066873;28;20070;-68
2022/04/12 06:27:28;;;;;;;11.60;8.55;;;;;;;;;;5066324;28;20397;-68
2022/04/12 06:29:54;;;;;;;9.73;7.70;;;;;;;;;;5064401;28;20036;-68
2022/04/12 06:32:20;;;;;;;11.95;8.15;;;;;;;;;;5064656;28;20428;-68
2022/04/12 06:34:46;;;;;;;10.15;7.88;;;;;;;;;;5062511;28;20133;-68
2022/04/12 06:37:12;;;;;;;10.38;7.57;;;;;;;;;;5059290;28;20063;-68
2022/04/12 06:39:38;;;;;;;11.52;7.82;;;;;;;;;;5060118;28;20381;-68
2022/04/12 06:42:05;;;;;;;12.38;7.47;;;;;;;;;;5061408;28;20048;-68
2022/04/12 06:44:32;;;;;;;13.77;7.97;;;;;;;;;;5063231;28;20040;-67
2022/04/12 06:46:58;;;;;;;12.15;8.52;;;;;;;;;;5061733;28;20060;-68
2022/04/12 06:49:24;;;;;;;12.40;8.25;;;;;;;;;;5063217;28;20039;-69
2022/04/12 06:51:50;;;;;;;12.13;8.60;;;;;;;;;;5061372;28;20039;-68
2022/04/12 06:54:16;;;;;;;10.45;7.90;;;;;;;;;;5062742;28;20040;-68
2022/04/12 06:56:42;;;;;;;12.20;7.10;;;;;;;;;;5064143;28;20077;-68
2022/04/12 06:59:09;;;;;;;12.77;8.18;;;;;;;;;;5063095;28;20060;-67
2022/04/12 07:01:35;;;;;;;11.23;7.68;;;;;;;;;;5062696;28;20052;-68
2022/04/12 07:04:01;;;;;;;15.77;8.60;;;;;;;;;;5044944;28;20040;-68
2022/04/12 07:06:27;;;;;;;14.05;8.27;;;;;;;;;;5061250;28;20067;-68
2022/04/12 07:08:53;;;;;;;12.75;8.10;;;;;;;;;;5061221;28;20056;-68
2022/04/12 07:11:20;;;;;;;12.60;8.07;;;;;;;;;;5061731;28;20049;-69
2022/04/12 07:13:46;;;;;;;11.60;8.05;;;;;;;;;;5063250;28;20036;-68
2022/04/12 07:16:12;;;;;;;11.85;7.50;;;;;;;;;;5065355;28;20040;-69
2022/04/12 07:18:38;;;;;;;14.27;7.80;;;;;;;;;;5065653;28;20048;-68
2022/04/12 07:21:04;;;;;;;12.93;7.90;;;;;;;;;;5048879;28;20044;-68
2022/04/12 07:23:30;;;;;;;12.07;7.70;;;;;;;;;;5065671;28;20044;-68
2022/04/12 07:25:56;;;;;;;13.05;8.02;;;;;;;;;;5061900;28;20384;-68
2022/04/12 07:28:23;;;;;;;12.43;7.70;;;;;;;;;;5065676;28;20037;-69
2022/04/12 07:30:49;;;;;;;9.35;7.32;;;;;;;;;;5064171;28;20139;-68
2022/04/12 07:33:15;;;;;;;9.93;8.15;;;;;;;;;;5064600;28;20031;-68
2022/04/12 07:35:41;;;;;;;9.82;6.85;;;;;;;;;;5065613;28;20362;-68
2022/04/12 07:38:07;;;;;;;13.05;7.88;;;;;;;;;;5065054;28;20052;-68
2022/04/12 07:40:33;;;;;;;12.10;7.95;;;;;;;;;;5045534;28;20080;-68
2022/04/12 07:43:00;;;;;;;9.55;7.45;;;;;;;;;;5061420;28;20532;-68
2022/04/12 07:45:26;;;;;;;15.15;8.48;;;;;;;;;;5063616;28;20491;-68
2022/04/12 07:47:52;;;;;;;11.07;7.82;;;;;;;;;;5062763;28;20196;-68
2022/04/12 07:50:18;;;;;;;10.95;7.13;;;;;;;;;;5059730;28;20036;-68
2022/04/12 07:52:44;;;;;;;10.68;7.40;;;;;;;;;;5067983;28;20174;-65
2022/04/12 07:55:10;;;;;;;11.18;7.35;;;;;;;;;;5059953;28;20044;-68
2022/04/12 07:57:37;;;;;;;9.75;7.15;;;;;;;;;;5064928;28;20032;-67
2022/04/12 08:00:04;;;;;;;13.02;7.97;;;;;;;;;;5068822;28;20523;-69
2022/04/12 08:02:30;;;;;;;13.88;8.15;;;;;;;;;;5066562;28;20123;-68
2022/04/12 08:04:56;;;;;;;12.48;7.22;;;;;;;;;;5070164;28;20107;-68
2022/04/12 08:07:22;;;;;;;10.63;7.25;;;;;;;;;;5067575;28;20060;-68
2022/04/12 08:09:48;;;;;;;11.13;7.05;;;;;;;;;;5069026;28;20098;-68
2022/04/12 08:12:14;;;;;;;10.85;7.63;;;;;;;;;;5068093;28;20041;-69
2022/04/12 08:14:40;;;;;;;11.60;7.57;;;;;;;;;;5070378;28;20496;-69
2022/04/12 08:17:06;;;;;;;10.70;7.20;;;;;;;;;;5067546;28;20427;-70
2022/04/12 08:19:32;;;;;;;10.93;7.68;;;;;;;;;;5066836;28;20086;-68
2022/04/12 08:22:01;;;;;;;9.20;6.93;;;;;;;;;;5068359;28;20380;-70
2022/04/12 08:24:27;;;;;;;11.98;7.53;;;;;;;;;;5069319;28;20057;-69
2022/04/12 08:26:53;;;;;;;13.80;7.78;;;;;;;;;;5068769;28;20043;-69
2022/04/12 08:29:19;;;;;;;11.65;7.68;;;;;;;;;;5067786;28;20060;-68
2022/04/12 08:31:45;;;;;;;9.90;7.38;;;;;;;;;;5052942;28;20033;-69
2022/04/12 08:34:11;;;;;;;11.80;7.93;;;;;;;;;;5069503;28;20437;-69
2022/04/12 08:36:37;;;;;;;10.05;7.10;;;;;;;;;;5068403;28;20056;-69
2022/04/12 08:39:03;;;;;;;10.57;7.60;;;;;;;;;;5068487;28;20519;-69
2022/04/12 08:41:30;;;;;;;10.73;7.13;;;;;;;;;;5061498;28;20399;-70
2022/04/12 08:43:57;;;;;;;10.00;7.13;;;;;;;;;;5066582;28;20660;-70
2022/04/12 08:46:25;;;;;;;10.10;7.15;;;;;;;;;;5060115;28;20046;-69
2022/04/12 08:48:55;;;;;;;12.38;7.03;;;;;;;;;;5062203;28;20039;-69
2022/04/12 08:51:22;;;;;;;9.13;6.38;;;;;;;;;;5062095;28;20032;-68
2022/04/12 08:53:48;;;;;;;9.48;7.03;;;;;;;;;;5045437;28;20456;-69
2022/04/12 08:56:15;;;;;;;10.52;7.07;;;;;;;;;;5064486;28;20040;-68
2022/04/12 08:58:41;;;;;;;8.43;6.15;;;;;;;;;;5064272;28;20052;-69
2022/04/12 09:01:08;;;;;;;9.70;6.78;;;;;;;;;;5062976;28;20053;-69
2022/04/12 09:03:34;;;;;;;10.50;7.40;;;;;;;;;;5062628;28;20040;-69
2022/04/12 09:06:00;;;;;;;10.38;7.20;;;;;;;;;;5058760;28;20136;-68
2022/04/12 09:08:33;;;;;;;11.27;7.32;;;;;;;;;;5044327;28;20048;-69
2022/04/12 09:11:06;;;;;;;8.60;6.88;;;;;;;;;;5043482;28;20041;-68
2022/04/12 09:13:33;;;;;;;9.82;6.53;;;;;;;;;;5062303;28;20067;-68
2022/04/12 09:15:59;;;;;;;9.27;6.70;;;;;;;;;;5063696;28;20044;-69
2022/04/12 09:18:39;;;;;;;10.60;6.55;;;;;;;;;;5060566;28;20052;-69
2022/04/12 09:21:15;;;;;;;12.07;7.32;;;;;;;;;;5063316;28;20119;-67
2022/04/12 09:23:42;;;;;;;10.07;6.78;;;;;;;;;;5060548;28;20032;-69
2022/04/12 09:26:09;;;;;;;9.77;7.60;;;;;;;;;;5056664;28;20861;-69
2022/04/12 09:28:41;;;;;;;9.73;6.68;;;;;;;;;;5065663;28;20056;-69
2022/04/12 09:31:17;;;;;;;11.82;6.93;;;;;;;;;;5063139;28;20496;-69
2022/04/12 09:33:44;;;;;;;10.80;6.90;;;;;;;;;;5063253;28;20115;-69
2022/04/12 09:36:11;;;;;;;10.27;6.00;;;;;;;;;;5062664;28;20048;-69
2022/04/12 09:38:38;;;;;;;10.32;6.50;;;;;;;;;;5063231;28;20037;-69
2022/04/12 09:41:22;;;;;;;8.70;6.05;;;;;;;;;;5062296;28;20448;-69
2022/04/12 09:43:55;;;;;;;8.00;5.40;;;;;;;;;;5060154;28;20079;-69
2022/04/12 09:46:22;;;;;;;8.43;5.65;;;;;;;;;;5061793;28;20068;-69
2022/04/12 09:48:48;;;;;;;11.20;6.15;;;;;;;;;;5049113;28;20123;-69
2022/04/12 09:51:15;;;;;;;8.95;5.43;;;;;;;;;;5061515;28;20024;-69
2022/04/12 09:53:42;;;;;;;10.40;6.05;;;;;;;;;;5066314;28;20040;-69
2022/04/12 09:56:15;;;;;;;8.20;5.85;;;;;;;;;;5063050;28;20055;-69
2022/04/12 09:58:44;;;;;;;9.20;5.75;;;;;;;;;;5064367;28;20485;-69
2022/04/12 10:01:11;;;;;;;9.35;6.00;;;;;;;;;;5064152;28;20044;-69
2022/04/12 10:03:37;;;;;;;10.15;5.85;;;;;;;;;;5062698;28;20044;-69
2022/04/12 10:06:04;;;;;;;8.63;5.60;;;;;;;;;;5047429;28;20159;-69
2022/04/12 10:08:31;;;;;;;10.68;6.35;;;;;;;;;;5058899;28;20073;-69
2022/04/12 10:10:58;;;;;;;8.45;5.32;;;;;;;;;;5063609;28;20389;-69
2022/04/12 10:13:25;;;;;;;6.95;4.85;;;;;;;;;;5057807;28;20056;-69
2022/04/12 10:15:52;;;;;;;7.78;4.88;;;;;;;;;;5062967;28;20048;-69
2022/04/12 10:18:20;;;;;;;7.13;5.45;;;;;;;;;;5061538;28;20056;-69
2022/04/12 10:20:46;;;;;;;8.82;5.60;;;;;;;;;;5063068;28;20048;-69
2022/04/12 10:23:13;;;;;;;7.55;4.97;;;;;;;;;;5063991;28;20498;-69
2022/04/12 10:25:40;;;;;;;7.80;5.15;;;;;;;;;;5061547;28;20040;-69
2022/04/12 10:28:07;;;;;;;10.57;5.50;;;;;;;;;;5062896;28;20059;-69
2022/04/12 10:30:33;;;;;;;6.80;5.10;;;;;;;;;;5046058;28;20396;-68
2022/04/12 10:33:02;;;;;;;10.80;5.70;;;;;;;;;;5061548;28;20431;-69
2022/04/12 10:35:48;;;;;;;9.82;5.05;;;;;;;;;;5063606;28;20447;-69
2022/04/12 10:38:15;;;;;;;8.95;4.80;;;;;;;;;;5064092;28;20032;-69
2022/04/12 10:40:45;;;;;;;8.82;5.90;;;;;;;;;;5061007;28;20045;-69
2022/04/12 10:43:12;;;;;;;10.65;5.68;;;;;;;;;;5063379;28;20447;-69
2022/04/12 10:45:46;;;;;;;9.90;5.82;;;;;;;;;;5044902;28;20140;-69
2022/04/12 10:48:19;;;;;;;14.50;6.40;;;;;;;;;;5075195;28;20044;-68
2022/04/12 10:50:46;;;;;;;10.32;5.95;;;;;;;;;;5045064;28;20130;-69
2022/04/12 10:53:12;;;;;;;8.18;5.80;;;;;;;;;;5064137;28;20161;-69
2022/04/12 10:55:43;;;;;;;10.55;6.25;;;;;;;;;;5064277;28;20049;-69
2022/04/12 10:58:13;;;;;;;8.15;5.88;;;;;;;;;;5064368;28;20040;-69
2022/04/12 11:00:42;;;;;;;9.45;5.82;;;;;;;;;;5044372;28;20045;-69
2022/04/12 11:03:08;;;;;;;9.60;5.85;;;;;;;;;;5059885;28;20037;-69
2022/04/12 11:05:39;;;;;;;9.32;5.45;;;;;;;;;;5060121;28;20507;-69
2022/04/12 11:08:06;;;;;;;11.35;6.18;;;;;;;;;;5059516;28;20444;-69
2022/04/12 11:10:32;;;;;;;8.45;5.78;;;;;;;;;;5063015;28;20048;-69
2022/04/12 11:13:09;;;;;;;11.77;6.43;;;;;;;;;;5060733;28;20102;-68
2022/04/12 11:15:36;;;;;;;9.98;6.32;;;;;;;;;;5080526;28;20141;-68
2022/04/12 11:18:13;;;;;;;11.40;6.45;;;;;;;;;;5061542;28;20118;-69
2022/04/12 11:20:40;;;;;;;12.13;6.22;;;;;;;;;;5061755;28;20060;-69
2022/04/12 11:23:09;;;;;;;10.88;6.00;;;;;;;;;;5060482;28;20182;-69
2022/04/12 11:25:55;;;;;;;7.68;5.82;;;;;;;;;;5059305;28;20059;-69
2022/04/12 11:28:21;;;;;;;;;;;;;;;;;;5062110;28;20047;-69
2022/04/12 11:30:59;;;;;;;8.68;5.68;;;;;;;;;;5061285;28;19916;-69
2022/04/12 11:33:27;;;;;;;10.68;6.78;;;;;;;;;;5064144;28;20303;-69
2022/04/12 11:35:53;;;;;;;8.98;5.97;;;;;;;;;;5060938;28;20045;-69
2022/04/12 11:38:22;;;;;;;9.20;5.95;;;;;;;;;;5064641;28;20055;-69
2022/04/12 11:40:49;;;;;;;8.82;6.15;;;;;;;;;;5059595;28;20059;-69
2022/04/12 11:43:24;;;;;;;10.60;6.05;;;;;;;;;;5058791;28;20127;-68
2022/04/12 11:45:54;;;;;;;8.45;5.75;;;;;;;;;;5059561;28;20573;-69
2022/04/12 11:48:21;;;;;;;8.07;5.63;;;;;;;;;;5061481;28;20057;-69
2022/04/12 11:50:54;;;;;;;8.98;6.00;;;;;;;;;;5061202;28;20044;-69
2022/04/12 11:53:21;;;;;;;9.65;5.82;;;;;;;;;;5062133;28;20041;-68
2022/04/12 11:55:47;;;;;;;8.90;5.97;;;;;;;;;;5063888;28;20044;-68
2022/04/12 11:58:20;;;;;;;10.93;6.53;;;;;;;;;;5061539;28;20049;-68
2022/04/12 12:00:47;;;;;;;11.60;7.22;;;;;;;;;;5063875;28;20049;-68
2022/04/12 12:03:16;;;;;;;11.07;6.05;;;;;;;;;;5061962;28;20056;-68
2022/04/12 12:05:43;;;;;;;10.25;6.18;;;;;;;;;;5064025;28;20037;-68
2022/04/12 12:08:10;;;;;;;9.35;6.28;;;;;;;;;;5062476;28;20044;-68
2022/04/12 12:10:37;;;;;;;9.77;5.97;;;;;;;;;;5065105;28;20067;-68
2022/04/12 12:13:07;;;;;;;9.55;6.30;;;;;;;;;;5063072;28;20040;-68
2022/04/12 12:15:34;;;;;;;10.05;6.80;;;;;;;;;;5061848;28;20044;-68
2022/04/12 12:18:01;;;;;;;8.52;6.28;;;;;;;;;;5064198;28;20417;-68
2022/04/12 12:20:29;;;;;;;9.02;5.80;;;;;;;;;;5064300;28;20090;-68
2022/04/12 12:22:59;;;;;;;10.52;6.20;;;;;;;;;;5063603;28;20098;-68
2022/04/12 12:25:54;;;;;;;10.93;5.97;;;;;;;;;;5063578;28;20049;-68
2022/04/12 12:28:20;;;;;;;9.75;6.53;;;;;;;;;;5062038;28;20036;-68
2022/04/12 12:30:48;;;;;;;8.90;5.82;;;;;;;;;;5061439;28;20048;-69
2022/04/12 12:33:14;;;;;;;11.20;5.82;;;;;;;;;;5063943;28;20602;-68
2022/04/12 12:35:45;;;;;;;8.90;4.85;;;;;;;;;;5063500;28;20492;-68
2022/04/12 12:38:12;;;;;;;9.85;6.60;;;;;;;;;;5064495;28;20045;-69
2022/04/12 12:40:39;;;;;;;11.20;6.00;;;;;;;;;;5049336;28;20143;-68
2022/04/12 12:43:06;;;;;;;8.95;6.28;;;;;;;;;;5067949;28;20079;-68
2022/04/12 12:45:33;;;;;;;9.23;6.05;;;;;;;;;;5048513;28;20049;-68
2022/04/12 12:47:59;;;;;;;10.55;6.50;;;;;;;;;;5066783;28;20048;-68
2022/04/12 12:50:28;;;;;;;9.30;6.13;;;;;;;;;;5066140;28;20046;-68
2022/04/12 12:53:01;;;;;;;10.35;6.68;;;;;;;;;;5066661;28;20063;-68
2022/04/12 12:55:29;;;;;;;8.27;6.57;;;;;;;;;;5066277;28;20088;-68
2022/04/12 12:57:58;;;;;;;9.25;6.88;;;;;;;;;;5066524;28;20044;-68
2022/04/12 13:00:28;;;;;;;10.15;6.68;;;;;;;;;;5066817;28;20048;-68
2022/04/12 13:02:59;;;;;;;10.63;6.82;;;;;;;;;;5066202;28;20052;-68
2022/04/12 13:05:25;;;;;;;10.30;6.30;;;;;;;;;;5066887;28;20044;-68
2022/04/12 13:07:55;;;;;;;6.90;5.10;;;;;;;;;;5064572;28;20176;-68
2022/04/12 13:10:21;;;;;;;8.55;5.53;;;;;;;;;;5048458;28;20060;-68
2022/04/12 13:12:47;;;;;;;9.38;5.20;;;;;;;;;;5067219;28;20062;-68
2022/04/12 13:15:13;;;;;;;7.15;5.10;;;;;;;;;;5066403;28;20063;-68
2022/04/12 13:17:40;;;;;;;8.15;5.40;;;;;;;;;;5066452;28;20055;-68
2022/04/12 13:20:10;;;;;;;7.53;5.60;;;;;;;;;;5064760;28;20400;-68
2022/04/12 13:22:36;;;;;;;13.80;7.10;;;;;;;;;;5064856;28;20139;-68
2022/04/12 13:25:03;;;;;;;11.57;5.90;;;;;;;;;;5066838;28;20040;-68
2022/04/12 13:27:34;;;;;;;11.48;5.75;;;;;;;;;;5065285;28;20049;-68
2022/04/12 13:30:01;;;;;;;9.60;5.90;;;;;;;;;;5066170;28;20071;-68
2022/04/12 13:32:27;;;;;;;12.63;6.30;;;;;;;;;;5064053;28;20397;-68
2022/04/12 13:34:53;;;;;;;7.97;5.93;;;;;;;;;;5063302;28;20510;-68
2022/04/12 13:37:19;;;;;;;9.52;6.60;;;;;;;;;;5064879;28;20089;-68
2022/04/12 13:39:49;;;;;;;12.57;6.95;;;;;;;;;;5063566;28;21902;-68
2022/04/12 13:42:15;;;;;;;11.82;7.25;;;;;;;;;;5066830;28;20092;-68
2022/04/12 13:44:41;;;;;;;10.00;7.15;;;;;;;;;;5065443;28;20479;-68
2022/04/12 13:47:07;;;;;;;10.80;7.00;;;;;;;;;;5063958;28;20508;-68
2022/04/12 13:49:34;;;;;;;12.20;7.22;;;;;;;;;;5064979;28;20051;-68
2022/04/12 13:52:01;;;;;;;10.50;6.47;;;;;;;;;;5066300;28;20052;-68
2022/04/12 13:54:28;;;;;;;9.30;6.47;;;;;;;;;;5065362;28;20040;-68
2022/04/12 13:56:55;;;;;;;11.20;6.90;;;;;;;;;;5063595;28;20520;-69
2022/04/12 13:59:22;;;;;;;10.63;6.57;;;;;;;;;;5048286;28;20389;-68
2022/04/12 14:01:48;;;;;;;9.60;6.45;;;;;;;;;;5065316;28;20055;-68
2022/04/12 14:04:14;;;;;;;10.48;6.55;;;;;;;;;;5065560;28;20053;-68
2022/04/12 14:06:43;;;;;;;12.40;6.57;;;;;;;;;;5065074;28;20517;-68
2022/04/12 14:09:09;;;;;;;10.85;6.43;;;;;;;;;;5084498;28;20150;-68
2022/04/12 14:11:35;;;;;;;12.38;6.80;;;;;;;;;;5066527;28;20067;-68
2022/04/12 14:14:01;;;;;;;10.10;6.50;;;;;;;;;;5066987;28;20493;-68
2022/04/12 14:16:28;;;;;;;9.88;6.60;;;;;;;;;;5066693;28;20036;-68
2022/04/12 14:18:54;;;;;;;9.25;5.70;;;;;;;;;;5066124;28;20040;-68
2022/04/12 14:21:20;;;;;;;9.73;6.50;;;;;;;;;;5065598;28;20040;-68
2022/04/12 14:23:46;;;;;;;10.35;5.95;;;;;;;;;;5065579;28;20059;-68
2022/04/12 14:26:12;;;;;;;9.20;5.75;;;;;;;;;;5066273;28;20044;-68
2022/04/12 14:28:39;;;;;;;10.30;6.35;;;;;;;;;;5066571;28;20041;-68
2022/04/12 14:31:06;;;;;;;8.32;5.60;;;;;;;;;;5063978;28;20037;-68
2022/04/12 14:33:32;;;;;;;9.63;5.45;;;;;;;;;;5064030;28;20040;-68